Time;durP1;ratioP1;P1;durP2;ratioP2;P2;SDS_P1;SDS_P2;PMS_P1;PMS_P2;Temp;Humidity;BMP_temperature;BMP_pressure;BME280_temperature;BME280_humidity;BME280_pressure;Samples;Min_cycle;Max_cycle;Signal;HPM_P1;HPM_P2
2022/10/15 00:01:11;;;;;;;;;;;20.00;92.20;;;;;;5112455;28;19908;-44
2022/10/15 00:03:37;;;;;;;;;;;20.00;92.40;;;;;;5112617;28;20363;-42
2022/10/15 00:06:03;;;;;;;;;;;20.00;92.20;;;;;;5111225;28;20694;-43
2022/10/15 00:08:29;;;;;;;;;;;20.00;92.20;;;;;;5111816;28;19938;-44
2022/10/15 00:10:54;;;;;;;;;;;20.00;92.10;;;;;;5112457;28;19911;-43
2022/10/15 00:13:19;;;;;;;;;;;20.00;92.00;;;;;;5112441;28;19946;-42
2022/10/15 00:15:45;;;;;;;;;;;20.00;92.00;;;;;;5112398;28;20263;-42
2022/10/15 00:18:10;;;;;;;;;;;20.10;91.90;;;;;;5111781;28;20047;-43
2022/10/15 00:20:39;;;;;;;;;;;20.00;91.80;;;;;;5112569;28;19907;-43
2022/10/15 00:23:05;;;;;;;;;;;20.00;91.80;;;;;;5110488;28;19919;-44
2022/10/15 00:25:30;;;;;;;;;;;20.00;91.80;;;;;;5110866;28;19912;-43
2022/10/15 00:27:56;;;;;;;;;;;20.00;91.80;;;;;;5112557;28;19922;-44
2022/10/15 00:30:21;;;;;;;;;;;20.00;91.80;;;;;;5115950;28;19999;-44
2022/10/15 00:32:47;;;;;;;;;;;20.10;91.90;;;;;;5116377;28;19941;-44
2022/10/15 00:35:12;;;;;;;;;;;20.00;91.80;;;;;;5116376;28;19912;-46
2022/10/15 00:37:38;;;;;;;;;;;20.00;91.80;;;;;;5116678;28;19919;-44
2022/10/15 00:40:04;;;;;;;;;;;20.00;92.00;;;;;;5115897;28;19915;-44
2022/10/15 00:42:29;;;;;;;;;;;20.00;92.10;;;;;;5116534;28;19912;-45
2022/10/15 00:44:56;;;;;;;;;;;20.00;92.00;;;;;;5115912;28;19914;-44
2022/10/15 00:47:21;;;;;;;;;;;20.00;92.20;;;;;;5116413;27;19919;-43
2022/10/15 00:49:50;;;;;;;;;;;20.00;92.10;;;;;;5115654;28;19908;-45
2022/10/15 00:52:22;;;;;;;;;;;20.00;92.20;;;;;;5115167;28;19915;-46
2022/10/15 00:55:09;;;;;;;;;;;20.00;92.20;;;;;;5116696;28;19911;-44
2022/10/15 00:57:34;;;;;;;;;;;20.00;92.20;;;;;;5116719;28;20030;-44
2022/10/15 01:00:07;;;;;;;;;;;20.00;92.20;;;;;;5097630;28;20014;-45
2022/10/15 01:02:32;;;;;;;;;;;20.00;92.30;;;;;;5115771;28;20287;-44
2022/10/15 01:04:58;;;;;;;;;;;20.00;92.30;;;;;;5115610;28;19912;-42
2022/10/15 01:07:23;;;;;;;;;;;20.00;92.30;;;;;;5115312;28;19919;-43
2022/10/15 01:09:49;;;;;;;;;;;20.00;92.30;;;;;;5115375;28;19995;-43
2022/10/15 01:12:27;;;;;;;;;;;20.00;92.30;;;;;;5115464;28;20377;-46
2022/10/15 01:15:00;;;;;;;;;;;20.00;92.20;;;;;;5115287;28;19916;-45
2022/10/15 01:17:28;;;;;;;;;;;20.00;92.10;;;;;;5115331;28;20064;-44
2022/10/15 01:20:09;;;;;;;;;;;20.00;92.10;;;;;;5114947;28;20282;-42
2022/10/15 01:22:53;;;;;;;;;;;20.00;92.10;;;;;;5114827;28;19911;-44
2022/10/15 01:25:30;;;;;;;;;;;20.00;92.00;;;;;;5115591;28;19931;-44
2022/10/15 01:28:12;;;;;;;;;;;20.00;92.00;;;;;;5114946;28;19915;-45
2022/10/15 01:30:40;;;;;;;;;;;20.00;91.90;;;;;;5117726;27;19918;-42
2022/10/15 01:33:21;;;;;;;;;;;20.00;91.80;;;;;;5113614;28;19920;-46
2022/10/15 01:35:47;;;;;;;;;;;20.00;91.80;;;;;;5112079;28;19915;-43
2022/10/15 01:38:21;;;;;;;;;;;20.00;91.90;;;;;;5114681;28;20384;-42
2022/10/15 01:40:47;;;;;;;;;;;20.00;91.90;;;;;;5114122;28;20269;-41
2022/10/15 01:43:15;;;;;;;;;;;20.00;91.90;;;;;;5114979;28;20006;-46
2022/10/15 01:46:07;;;;;;;;;;;20.00;91.90;;;;;;5118600;27;19908;-42
2022/10/15 01:48:33;;;;;;;;;;;20.00;91.90;;;;;;5108992;28;20341;-42
2022/10/15 01:51:00;;;;;;;;;;;20.00;92.00;;;;;;5112459;28;19957;-42
2022/10/15 01:53:26;;;;;;;;;;;20.00;92.00;;;;;;5114408;28;19928;-45
2022/10/15 01:55:54;;;;;;;;;;;20.00;92.00;;;;;;5114373;28;19912;-42
2022/10/15 01:58:20;;;;;;;;;;;20.00;92.10;;;;;;5111551;28;19955;-42
2022/10/15 02:00:46;;;;;;;;;;;20.00;92.10;;;;;;5112783;28;19911;-41
2022/10/15 02:03:11;;;;;;;;;;;20.00;92.10;;;;;;5115573;28;19961;-43
2022/10/15 02:05:40;;;;;;;;;;;20.00;92.20;;;;;;5113043;28;19964;-43
2022/10/15 02:08:15;;;;;;;;;;;20.00;92.20;;;;;;5114576;28;19974;-43
2022/10/15 02:10:52;;;;;;;;;;;20.00;92.20;;;;;;5115807;28;20270;-42
2022/10/15 02:13:18;;;;;;;;;;;20.00;92.30;;;;;;5115213;28;19912;-42
2022/10/15 02:15:43;;;;;;;;;;;20.00;92.30;;;;;;5115478;28;20031;-41
2022/10/15 02:18:17;;;;;;;;;;;20.00;92.20;;;;;;5097472;28;19908;-42
2022/10/15 02:20:54;;;;;;;;;;;20.00;92.20;;;;;;5113799;28;19919;-44
2022/10/15 02:23:21;;;;;;;;;;;20.00;92.10;;;;;;5115268;28;19934;-43
2022/10/15 02:25:47;;;;;;;;;;;20.00;92.10;;;;;;5115500;28;19915;-42
2022/10/15 02:28:14;;;;;;;;;;;20.00;92.00;;;;;;5115113;28;20358;-43
2022/10/15 02:30:41;;;;;;;;;;;20.00;92.00;;;;;;5115287;28;19939;-43
2022/10/15 02:33:07;;;;;;;;;;;20.00;92.00;;;;;;5114283;28;19912;-42
2022/10/15 02:35:33;;;;;;;;;;;20.00;91.90;;;;;;5115082;28;20274;-44
2022/10/15 02:38:00;;;;;;;;;;;20.00;91.90;;;;;;5115315;28;19908;-41
2022/10/15 02:40:27;;;;;;;;;;;20.00;92.00;;;;;;5115118;28;20270;-42
2022/10/15 02:42:52;;;;;;;;;;;20.00;92.10;;;;;;5114949;28;20314;-45
2022/10/15 02:45:19;;;;;;;;;;;20.00;92.20;;;;;;5116154;27;19947;-45
2022/10/15 02:47:44;;;;;;;;;;;20.00;92.20;;;;;;5135494;27;19956;-43
2022/10/15 02:50:10;;;;;;;;;;;20.00;92.30;;;;;;5135358;27;19911;-44
2022/10/15 02:52:35;;;;;;;;;;;19.90;92.30;;;;;;5135732;27;19907;-42
2022/10/15 02:55:01;;;;;;;;;;;19.90;92.30;;;;;;5135385;27;19950;-42
2022/10/15 02:57:26;;;;;;;;;;;19.90;92.30;;;;;;5135195;27;19953;-45
2022/10/15 02:59:52;;;;;;;;;;;20.00;92.30;;;;;;5135545;27;19907;-42
2022/10/15 03:02:17;;;;;;;;;;;19.90;92.30;;;;;;5135538;27;20346;-42
2022/10/15 03:04:43;;;;;;;;;;;20.00;92.40;;;;;;5135188;27;20402;-43
2022/10/15 03:07:08;;;;;;;;;;;19.90;92.30;;;;;;5135435;27;19942;-43
2022/10/15 03:09:34;;;;;;;;;;;19.90;92.30;;;;;;5135717;27;19918;-42
2022/10/15 03:11:59;;;;;;;;;;;20.00;92.30;;;;;;5135204;27;20007;-44
2022/10/15 03:14:24;;;;;;;;;;;20.00;92.40;;;;;;5135389;27;20242;-44
2022/10/15 03:16:50;;;;;;;;;;;20.00;92.40;;;;;;5135006;27;19947;-43
2022/10/15 03:19:15;;;;;;;;;;;20.00;92.40;;;;;;5116844;27;19908;-44
2022/10/15 03:21:41;;;;;;;;;;;19.90;92.30;;;;;;5134901;27;19914;-43
2022/10/15 03:24:06;;;;;;;;;;;20.00;92.30;;;;;;5135277;27;19914;-45
2022/10/15 03:26:32;;;;;;;;;;;20.00;92.30;;;;;;5135231;27;19976;-42
2022/10/15 03:28:57;;;;;;;;;;;20.00;92.20;;;;;;5135101;27;19915;-44
2022/10/15 03:31:23;;;;;;;;;;;20.00;92.20;;;;;;5134840;27;19907;-44
2022/10/15 03:33:48;;;;;;;;;;;20.00;92.20;;;;;;5134974;27;19911;-43
2022/10/15 03:36:14;;;;;;;;;;;20.00;92.20;;;;;;5134908;28;19923;-44
2022/10/15 03:38:39;;;;;;;;;;;20.00;92.20;;;;;;5135021;28;19930;-47
2022/10/15 03:41:05;;;;;;;;;;;19.90;92.20;;;;;;5135024;28;19915;-42
2022/10/15 03:43:30;;;;;;;;;;;20.00;92.20;;;;;;5135032;28;19968;-43
2022/10/15 03:46:00;;;;;;;;;;;19.90;92.20;;;;;;5128337;28;19915;-42
2022/10/15 03:48:25;;;;;;;;;;;19.90;92.20;;;;;;5114006;28;20334;-45
2022/10/15 03:50:50;;;;;;;;;;;19.90;92.20;;;;;;5114393;28;19959;-42
2022/10/15 03:53:16;;;;;;;;;;;19.90;92.20;;;;;;5113971;28;19927;-46
2022/10/15 03:55:41;;;;;;;;;;;19.90;92.20;;;;;;5114633;28;19961;-43
2022/10/15 03:58:07;;;;;;;;;;;19.90;92.20;;;;;;5114031;28;19934;-43
2022/10/15 04:00:32;;;;;;;;;;;19.90;92.30;;;;;;5112984;28;19912;-44
2022/10/15 04:02:58;;;;;;;;;;;19.90;92.30;;;;;;5114314;28;19999;-43
2022/10/15 04:05:23;;;;;;;;;;;19.90;92.30;;;;;;5117621;28;19908;-44
2022/10/15 04:07:49;;;;;;;;;;;19.90;92.30;;;;;;5118418;28;19919;-43
2022/10/15 04:10:14;;;;;;;;;;;19.90;92.30;;;;;;5118532;28;19912;-44
2022/10/15 04:12:40;;;;;;;;;;;19.90;92.30;;;;;;5117952;28;19915;-45
2022/10/15 04:15:05;;;;;;;;;;;19.90;92.30;;;;;;5118148;28;19918;-42
2022/10/15 04:17:31;;;;;;;;;;;19.90;92.30;;;;;;5118154;28;19912;-42
2022/10/15 04:19:57;;;;;;;;;;;19.90;92.30;;;;;;5117819;28;20390;-43
2022/10/15 04:22:22;;;;;;;;;;;19.90;92.20;;;;;;5118071;28;20361;-42
2022/10/15 04:24:48;;;;;;;;;;;20.00;92.20;;;;;;5118024;28;19919;-42
2022/10/15 04:27:13;;;;;;;;;;;19.90;92.20;;;;;;5117918;28;20324;-42
2022/10/15 04:29:39;;;;;;;;;;;20.00;92.20;;;;;;5099642;28;19973;-44
2022/10/15 04:32:04;;;;;;;;;;;19.90;92.10;;;;;;5117518;28;19918;-42
2022/10/15 04:34:29;;;;;;;;;;;19.90;92.20;;;;;;5117644;28;19911;-44
2022/10/15 04:36:55;;;;;;;;;;;19.90;92.10;;;;;;5099415;28;19912;-42
2022/10/15 04:39:20;;;;;;;;;;;19.90;92.10;;;;;;5117810;28;19908;-42
2022/10/15 04:41:46;;;;;;;;;;;19.90;92.10;;;;;;5117710;28;19999;-42
2022/10/15 04:44:12;;;;;;;;;;;20.00;92.20;;;;;;5117369;28;19908;-43
2022/10/15 04:46:37;;;;;;;;;;;19.90;92.10;;;;;;5129630;27;19986;-43
2022/10/15 04:49:03;;;;;;;;;;;20.00;92.10;;;;;;5138136;27;19908;-43
2022/10/15 04:51:28;;;;;;;;;;;20.00;92.10;;;;;;5138027;27;20350;-45
2022/10/15 04:53:54;;;;;;;;;;;19.90;92.10;;;;;;5138047;27;19989;-43
2022/10/15 04:56:20;;;;;;;;;;;20.00;92.10;;;;;;5137719;27;19919;-43
2022/10/15 04:58:47;;;;;;;;;;;20.00;92.10;;;;;;5137947;27;19915;-44
2022/10/15 05:01:13;;;;;;;;;;;19.90;92.10;;;;;;5137522;27;19908;-45
2022/10/15 05:03:40;;;;;;;;;;;20.00;92.20;;;;;;5137753;27;19954;-44
2022/10/15 05:06:07;;;;;;;;;;;19.90;92.20;;;;;;5137728;27;19919;-44
2022/10/15 05:08:33;;;;;;;;;;;19.90;92.20;;;;;;5137742;27;19919;-45
2022/10/15 05:11:00;;;;;;;;;;;19.90;92.20;;;;;;5137929;27;20307;-44
2022/10/15 05:13:26;;;;;;;;;;;19.90;92.20;;;;;;5137433;27;19912;-44
2022/10/15 05:15:51;;;;;;;;;;;20.00;92.30;;;;;;5136273;27;19911;-46
2022/10/15 05:18:17;;;;;;;;;;;19.90;92.30;;;;;;5137198;27;20003;-44
2022/10/15 05:20:42;;;;;;;;;;;19.90;92.30;;;;;;5137150;27;19907;-44
2022/10/15 05:23:08;;;;;;;;;;;19.90;92.20;;;;;;5137124;27;20358;-44
2022/10/15 05:25:33;;;;;;;;;;;19.90;92.20;;;;;;5137453;27;19907;-44
2022/10/15 05:27:58;;;;;;;;;;;19.90;92.20;;;;;;5118871;27;20273;-43
2022/10/15 05:30:24;;;;;;;;;;;20.00;92.20;;;;;;5137299;27;19958;-43
2022/10/15 05:32:53;;;;;;;;;;;19.90;92.10;;;;;;5137076;27;19912;-45
2022/10/15 05:35:19;;;;;;;;;;;19.90;92.10;;;;;;5136803;27;19918;-45
2022/10/15 05:37:44;;;;;;;;;;;19.90;92.00;;;;;;5137095;27;19911;-44
2022/10/15 05:40:10;;;;;;;;;;;20.00;92.00;;;;;;5136632;27;19908;-43
2022/10/15 05:42:35;;;;;;;;;;;20.00;91.90;;;;;;5136687;27;19990;-45
2022/10/15 05:45:01;;;;;;;;;;;19.90;91.90;;;;;;5137020;27;19993;-44
2022/10/15 05:47:26;;;;;;;;;;;20.00;91.90;;;;;;5118114;27;19908;-44
2022/10/15 05:49:52;;;;;;;;;;;20.00;91.90;;;;;;5116328;28;19908;-46
2022/10/15 05:52:17;;;;;;;;;;;19.90;91.90;;;;;;5116007;28;20441;-44
2022/10/15 05:54:43;;;;;;;;;;;20.00;92.00;;;;;;5116186;28;19912;-44
2022/10/15 05:57:08;;;;;;;;;;;20.00;92.00;;;;;;5116226;28;19919;-43
2022/10/15 05:59:34;;;;;;;;;;;19.90;92.00;;;;;;5115676;28;19912;-42
2022/10/15 06:01:59;;;;;;;;;;;19.90;92.10;;;;;;5115686;28;19914;-43
2022/10/15 06:04:25;;;;;;;;;;;19.90;92.10;;;;;;5115939;28;19919;-44
2022/10/15 06:06:50;;;;;;;;;;;19.90;92.20;;;;;;5115676;28;19926;-42
2022/10/15 06:09:16;;;;;;;;;;;19.90;92.20;;;;;;5115255;28;19908;-44
2022/10/15 06:11:41;;;;;;;;;;;20.00;92.20;;;;;;5115760;28;19950;-43
2022/10/15 06:14:07;;;;;;;;;;;19.90;92.30;;;;;;5115395;28;19974;-44
2022/10/15 06:16:32;;;;;;;;;;;19.90;92.30;;;;;;5115636;28;19965;-44
2022/10/15 06:18:58;;;;;;;;;;;19.90;92.30;;;;;;5115127;28;19907;-43
2022/10/15 06:21:23;;;;;;;;;;;19.90;92.40;;;;;;5115503;28;20262;-42
2022/10/15 06:23:49;;;;;;;;;;;19.90;92.30;;;;;;5115543;28;19907;-42
2022/10/15 06:26:15;;;;;;;;;;;19.90;92.40;;;;;;5096820;28;19919;-45
2022/10/15 06:28:40;;;;;;;;;;;19.90;92.30;;;;;;5097051;28;19908;-42
2022/10/15 06:31:06;;;;;;;;;;;19.90;92.30;;;;;;5114994;28;20414;-42
2022/10/15 06:33:31;;;;;;;;;;;19.90;92.30;;;;;;5114797;28;19916;-41
2022/10/15 06:36:04;;;;;;;;;;;19.90;92.20;;;;;;5114843;28;20004;-43
2022/10/15 06:38:30;;;;;;;;;;;19.90;92.40;;;;;;5115398;28;19915;-43
2022/10/15 06:40:56;;;;;;;;;;;19.90;92.10;;;;;;5115366;28;19912;-43
2022/10/15 06:43:22;;;;;;;;;;;20.00;92.00;;;;;;5114759;28;19911;-44
2022/10/15 06:45:47;;;;;;;;;;;19.90;91.90;;;;;;5120159;27;19907;-45
2022/10/15 06:48:13;;;;;;;;;;;19.90;91.80;;;;;;5135734;27;19908;-43
2022/10/15 06:50:38;;;;;;;;;;;19.90;91.80;;;;;;5134461;27;19939;-42
2022/10/15 06:53:04;;;;;;;;;;;20.00;91.80;;;;;;5135552;27;20273;-43
2022/10/15 06:55:29;;;;;;;;;;;20.00;91.90;;;;;;5135627;27;19955;-44
2022/10/15 06:57:55;;;;;;;;;;;20.00;91.80;;;;;;5135257;27;19908;-43
2022/10/15 07:00:22;;;;;;;;;;;20.00;91.80;;;;;;5135118;27;19907;-45
2022/10/15 07:02:47;;;;;;;;;;;20.00;91.80;;;;;;5135270;27;19914;-44
2022/10/15 07:05:13;;;;;;;;;;;20.00;91.80;;;;;;5135330;27;19908;-43
2022/10/15 07:07:38;;;;;;;;;;;20.00;92.00;;;;;;5116632;27;20014;-43
2022/10/15 07:10:04;;;;;;;;;;;20.00;92.10;;;;;;5135298;27;19918;-43
2022/10/15 07:12:30;;;;;;;;;;;20.00;92.20;;;;;;5135181;27;19907;-43
2022/10/15 07:14:55;;;;;;;;;;;20.00;92.30;;;;;;5134903;27;19923;-43
2022/10/15 07:17:20;;;;;;;;;;;20.00;92.30;;;;;;5135023;27;20346;-42
2022/10/15 07:19:46;;;;;;;;;;;20.00;92.40;;;;;;5134680;27;19907;-42
2022/10/15 07:22:11;;;;;;;;;;;20.00;92.40;;;;;;5116536;27;19907;-44
2022/10/15 07:24:37;;;;;;;;;;;20.00;92.40;;;;;;5134766;27;19908;-45
2022/10/15 07:27:03;;;;;;;;;;;20.00;92.40;;;;;;5125402;27;19915;-43
2022/10/15 07:29:28;;;;;;;;;;;20.00;92.40;;;;;;5114276;28;19982;-42
2022/10/15 07:31:53;;;;;;;;;;;20.00;92.30;;;;;;5114031;28;19915;-44
2022/10/15 07:34:20;;;;;;;;;;;20.00;92.20;;;;;;5113951;28;19964;-43
2022/10/15 07:36:45;;;;;;;;;;;20.00;92.10;;;;;;5113892;28;19912;-45
2022/10/15 07:39:11;;;;;;;;;;;20.00;92.30;;;;;;5113517;28;20347;-43
2022/10/15 07:41:36;;;;;;;;;;;20.00;91.90;;;;;;5113775;28;19914;-43
2022/10/15 07:44:02;;;;;;;;;;;20.00;91.90;;;;;;5113672;28;20320;-45
2022/10/15 07:46:28;;;;;;;;;;;20.00;91.90;;;;;;5124590;28;19907;-44
2022/10/15 07:48:53;;;;;;;;;;;20.00;91.80;;;;;;5134429;28;20006;-44
2022/10/15 07:51:19;;;;;;;;;;;20.00;91.80;;;;;;5131120;28;20006;-42
2022/10/15 07:53:46;;;;;;;;;;;20.00;91.80;;;;;;5113407;28;19916;-44
2022/10/15 07:56:12;;;;;;;;;;;20.00;91.80;;;;;;5128673;28;19918;-43
2022/10/15 07:58:38;;;;;;;;;;;20.00;91.90;;;;;;5121301;28;19983;-42
2022/10/15 08:01:04;;;;;;;;;;;20.00;91.90;;;;;;5116596;28;20313;-45
2022/10/15 08:03:29;;;;;;;;;;;20.00;92.00;;;;;;5105738;28;19915;-43
2022/10/15 08:05:55;;;;;;;;;;;20.00;91.90;;;;;;5113242;28;19960;-44
2022/10/15 08:08:21;;;;;;;;;;;20.00;91.90;;;;;;5113181;28;20358;-42
2022/10/15 08:10:47;;;;;;;;;;;20.00;91.80;;;;;;5112460;28;19915;-41
2022/10/15 08:13:13;;;;;;;;;;;20.00;91.90;;;;;;5112970;28;20274;-42
2022/10/15 08:15:39;;;;;;;;;;;20.00;91.90;;;;;;5111836;28;19968;-43
2022/10/15 08:18:04;;;;;;;;;;;20.00;91.90;;;;;;5113476;28;19908;-43
2022/10/15 08:20:30;;;;;;;;;;;20.00;92.00;;;;;;5113888;28;19907;-42
2022/10/15 08:22:55;;;;;;;;;;;20.00;92.00;;;;;;5113682;28;19915;-42
2022/10/15 08:25:21;;;;;;;;;;;20.00;92.00;;;;;;5113390;28;19908;-41
2022/10/15 08:27:46;;;;;;;;;;;20.00;92.00;;;;;;5113671;28;19961;-42
2022/10/15 08:30:12;;;;;;;;;;;20.00;92.20;;;;;;5112468;28;19912;-43
2022/10/15 08:32:37;;;;;;;;;;;20.00;92.00;;;;;;5111462;28;19957;-42
2022/10/15 08:35:03;;;;;;;;;;;20.00;92.00;;;;;;5112361;28;19923;-43
2022/10/15 08:37:28;;;;;;;;;;;20.00;92.00;;;;;;5111368;28;19955;-42
2022/10/15 08:39:53;;;;;;;;;;;20.00;91.90;;;;;;5109131;28;19915;-43
2022/10/15 08:42:21;;;;;;;;;;;20.00;91.90;;;;;;5112229;28;20439;-44
2022/10/15 08:44:50;;;;;;;;;;;20.00;91.90;;;;;;5113689;28;20268;-46
2022/10/15 08:47:31;;;;;;;;;;;20.00;91.90;;;;;;5115979;28;19911;-45
2022/10/15 08:50:01;;;;;;;;;;;20.10;92.00;;;;;;5114605;28;20238;-48
2022/10/15 08:52:32;;;;;;;;;;;20.00;92.00;;;;;;5116017;28;19915;-48
2022/10/15 08:55:00;;;;;;;;;;;20.00;92.00;;;;;;5116818;28;19964;-44
2022/10/15 08:57:34;;;;;;;;;;;20.00;92.10;;;;;;5114912;28;19951;-45
2022/10/15 09:00:01;;;;;;;;;;;20.10;92.00;;;;;;5085550;28;20350;-43
2022/10/15 09:02:34;;;;;;;;;;;20.00;92.00;;;;;;5115674;28;20369;-42
2022/10/15 09:05:15;;;;;;;;;;;20.10;92.10;;;;;;5113629;28;19908;-46
2022/10/15 09:07:50;;;;;;;;;;;20.10;92.10;;;;;;5113605;28;19923;-46
2022/10/15 09:10:27;;;;;;;;;;;20.10;92.10;;;;;;5099756;28;19919;-48
2022/10/15 09:12:55;;;;;;;;;;;20.10;92.20;;;;;;5114618;28;19908;-45
2022/10/15 09:15:21;;;;;;;;;;;20.10;92.20;;;;;;5115629;28;19996;-50
2022/10/15 09:17:50;;;;;;;;;;;20.00;92.20;;;;;;5106461;28;20124;-42
2022/10/15 09:20:17;;;;;;;;;;;20.10;92.20;;;;;;5115387;28;20270;-48
2022/10/15 09:22:43;;;;;;;;;;;20.00;92.20;;;;;;5115371;28;19998;-41
2022/10/15 09:25:19;;;;;;;;;;;20.10;92.30;;;;;;5096690;28;20251;-40
2022/10/15 09:27:46;;;;;;;;;;;20.10;92.30;;;;;;5114848;28;19912;-41
2022/10/15 09:30:22;;;;;;;;;;;20.10;92.30;;;;;;5115873;28;19953;-42
2022/10/15 09:32:50;;;;;;;;;;;20.00;92.30;;;;;;5115080;28;19908;-43
2022/10/15 09:35:19;;;;;;;;;;;20.10;92.30;;;;;;5114108;28;20267;-46
2022/10/15 09:38:12;;;;;;;;;;;20.10;92.30;;;;;;5115104;28;20333;-41
2022/10/15 09:40:43;;;;;;;;;;;20.10;92.30;;;;;;5078607;28;19914;-43
2022/10/15 09:43:09;;;;;;;;;;;20.10;92.30;;;;;;5115907;28;19939;-43
2022/10/15 09:45:34;;;;;;;;;;;20.10;92.30;;;;;;5117985;27;20380;-45
2022/10/15 09:48:01;;;;;;;;;;;20.10;92.30;;;;;;5136434;27;19939;-46
2022/10/15 09:50:40;;;;;;;;;;;20.10;92.30;;;;;;5118516;27;19915;-47
2022/10/15 09:53:12;;;;;;;;;;;20.10;92.30;;;;;;5116139;28;19922;-46
2022/10/15 09:55:48;;;;;;;;;;;20.10;92.30;;;;;;5096090;28;20316;-48
2022/10/15 09:58:17;;;;;;;;;;;20.20;92.30;;;;;;5114688;28;20003;-45
2022/10/15 10:01:05;;;;;;;;;;;20.10;92.30;;;;;;5113792;28;20011;-45
2022/10/15 10:03:31;;;;;;;;;;;20.20;92.30;;;;;;5096295;28;19908;-49
2022/10/15 10:06:02;;;;;;;;;;;20.20;92.30;;;;;;5115733;28;19908;-47
2022/10/15 10:08:32;;;;;;;;;;;20.20;92.30;;;;;;5114221;28;20366;-45
2022/10/15 10:10:59;;;;;;;;;;;20.20;92.30;;;;;;5115474;28;19942;-44
2022/10/15 10:13:28;;;;;;;;;;;20.20;92.20;;;;;;5094424;28;19955;-46
2022/10/15 10:15:55;;;;;;;;;;;20.20;92.30;;;;;;5114435;28;20319;-45
2022/10/15 10:18:22;;;;;;;;;;;20.20;92.30;;;;;;5115635;28;19904;-47
2022/10/15 10:20:53;;;;;;;;;;;20.20;92.30;;;;;;5095175;27;20146;-47
2022/10/15 10:23:20;;;;;;;;;;;20.20;92.20;;;;;;5114553;28;20269;-43
2022/10/15 10:25:46;;;;;;;;;;;20.30;92.30;;;;;;5115048;28;19924;-42
2022/10/15 10:28:24;;;;;;;;;;;20.20;92.20;;;;;;5115034;28;19911;-52
2022/10/15 10:30:52;;;;;;;;;;;20.30;92.30;;;;;;5115159;28;19911;-47
2022/10/15 10:33:24;;;;;;;;;;;20.20;92.20;;;;;;5113057;28;19941;-46
2022/10/15 10:35:50;;;;;;;;;;;20.20;92.30;;;;;;5111298;28;19908;-49
2022/10/15 10:38:17;;;;;;;;;;;20.20;92.30;;;;;;5112640;28;19965;-48
2022/10/15 10:40:48;;;;;;;;;;;20.30;92.20;;;;;;5111444;28;19912;-48
2022/10/15 10:43:14;;;;;;;;;;;20.30;92.20;;;;;;5095385;28;19919;-48
2022/10/15 10:45:50;;;;;;;;;;;20.30;92.20;;;;;;5118373;27;19908;-47
2022/10/15 10:48:20;;;;;;;;;;;20.30;92.30;;;;;;5094681;28;19931;-49
2022/10/15 10:50:46;;;;;;;;;;;20.20;92.30;;;;;;5099940;28;19907;-45
2022/10/15 10:53:24;;;;;;;;;;;20.20;92.20;;;;;;5095190;28;20200;-45
2022/10/15 10:55:51;;;;;;;;;;;20.30;92.30;;;;;;5114324;28;19952;-45
2022/10/15 10:58:18;;;;;;;;;;;20.20;92.20;;;;;;5114790;28;19940;-46
2022/10/15 11:00:45;;;;;;;;;;;20.20;92.20;;;;;;5114609;28;19931;-46
2022/10/15 11:03:23;;;;;;;;;;;20.20;92.20;;;;;;5114866;28;19908;-47
2022/10/15 11:05:54;;;;;;;;;;;20.20;92.20;;;;;;5114129;28;19908;-46
2022/10/15 11:08:25;;;;;;;;;;;20.20;92.20;;;;;;5096190;28;20342;-47
2022/10/15 11:10:56;;;;;;;;;;;20.20;92.20;;;;;;5114358;28;19963;-49
2022/10/15 11:13:44;;;;;;;;;;;20.20;92.20;;;;;;5095291;28;19965;-50
2022/10/15 11:16:16;;;;;;;;;;;20.30;92.20;;;;;;5083829;28;20010;-46
2022/10/15 11:18:41;;;;;;;;;;;20.20;92.10;;;;;;5112437;28;20347;-49
2022/10/15 11:21:10;;;;;;;;;;;20.30;92.20;;;;;;5112027;28;19918;-52
2022/10/15 11:23:38;;;;;;;;;;;20.20;92.10;;;;;;5111859;28;19922;-47
2022/10/15 11:26:24;;;;;;;;;;;20.20;92.10;;;;;;5110387;28;19907;-44
2022/10/15 11:29:03;;;;;;;;;;;20.20;92.10;;;;;;5112440;28;19930;-47
2022/10/15 11:31:31;;;;;;;;;;;20.20;92.10;;;;;;5114541;28;19908;-47
2022/10/15 11:34:19;;;;;;;;;;;20.20;92.10;;;;;;5114215;28;19916;-45
2022/10/15 11:36:56;;;;;;;;;;;20.20;92.10;;;;;;5111584;28;20003;-48
2022/10/15 11:39:47;;;;;;;;;;;20.20;92.10;;;;;;5111408;28;20002;-47
2022/10/15 11:42:13;;;;;;;;;;;20.20;92.10;;;;;;5112653;28;19908;-49
2022/10/15 11:44:41;;;;;;;;;;;20.20;92.10;;;;;;5112636;28;20028;-47
2022/10/15 11:47:09;;;;;;;;;;;20.20;92.00;;;;;;5129787;28;19907;-49
2022/10/15 11:49:38;;;;;;;;;;;20.20;92.00;;;;;;5130278;28;19943;-48
2022/10/15 11:52:09;;;;;;;;;;;20.20;92.00;;;;;;5113614;28;19948;-47
2022/10/15 11:54:39;;;;;;;;;;;20.20;92.00;;;;;;5112632;28;20095;-48
2022/10/15 11:57:07;;;;;;;;;;;20.20;92.00;;;;;;5113473;28;20379;-47
2022/10/15 11:59:33;;;;;;;;;;;20.20;92.00;;;;;;5095192;28;19908;-45
2022/10/15 12:02:00;;;;;;;;;;;20.20;92.00;;;;;;5092432;28;19919;-48
2022/10/15 12:04:35;;;;;;;;;;;20.20;91.90;;;;;;5112839;28;19912;-45
2022/10/15 12:07:01;;;;;;;;;;;20.20;91.90;;;;;;5111739;28;19920;-48
2022/10/15 12:09:35;;;;;;;;;;;20.20;91.90;;;;;;5112975;28;19955;-47
2022/10/15 12:12:06;;;;;;;;;;;20.20;91.90;;;;;;5112823;28;20286;-45
2022/10/15 12:14:38;;;;;;;;;;;20.20;92.00;;;;;;5110870;28;19934;-46
2022/10/15 12:17:20;;;;;;;;;;;20.20;92.00;;;;;;5111734;28;19920;-50
2022/10/15 12:19:57;;;;;;;;;;;20.20;92.00;;;;;;5113578;28;19993;-46
2022/10/15 12:22:30;;;;;;;;;;;20.20;91.90;;;;;;5093923;28;19912;-50
2022/10/15 12:24:56;;;;;;;;;;;20.20;92.00;;;;;;5113563;28;19916;-49
2022/10/15 12:27:23;;;;;;;;;;;20.20;91.90;;;;;;5115652;28;20060;-45
2022/10/15 12:29:48;;;;;;;;;;;20.20;92.00;;;;;;5116908;28;20294;-48
2022/10/15 12:32:23;;;;;;;;;;;20.20;91.90;;;;;;5114457;28;19936;-49
2022/10/15 12:34:59;;;;;;;;;;;20.20;91.90;;;;;;5111356;28;19926;-47
2022/10/15 12:37:26;;;;;;;;;;;20.20;91.90;;;;;;5093394;28;19911;-46
2022/10/15 12:40:00;;;;;;;;;;;20.20;91.90;;;;;;5111529;28;19994;-47
2022/10/15 12:42:26;;;;;;;;;;;20.20;91.90;;;;;;5115215;28;19914;-45
2022/10/15 12:44:52;;;;;;;;;;;20.20;91.90;;;;;;5113863;28;20351;-47
2022/10/15 12:47:36;;;;;;;;;;;20.20;91.90;;;;;;5113832;28;19912;-46
2022/10/15 12:50:03;;;;;;;;;;;20.20;91.90;;;;;;5114275;28;19934;-46
2022/10/15 12:52:48;;;;;;;;;;;20.20;91.90;;;;;;5113013;28;19907;-47
2022/10/15 12:55:25;;;;;;;;;;;20.20;91.90;;;;;;5114277;28;19916;-47
2022/10/15 12:57:52;;;;;;;;;;;20.20;91.90;;;;;;5110043;28;19939;-46
2022/10/15 13:00:27;;;;;;;;;;;20.20;91.90;;;;;;5113833;28;19994;-45
2022/10/15 13:02:53;;;;;;;;;;;20.20;91.90;;;;;;5114104;28;19907;-47
2022/10/15 13:05:29;;;;;;;;;;;20.20;91.90;;;;;;5114304;28;19908;-47
2022/10/15 13:07:56;;;;;;;;;;;20.20;92.00;;;;;;5117309;28;19927;-41
2022/10/15 13:10:23;;;;;;;;;;;20.20;92.00;;;;;;5115445;28;19908;-42
2022/10/15 13:12:50;;;;;;;;;;;20.20;92.00;;;;;;5114571;28;19930;-42
2022/10/15 13:15:15;;;;;;;;;;;20.20;92.00;;;;;;5115619;28;20012;-43
2022/10/15 13:17:41;;;;;;;;;;;20.30;92.10;;;;;;5097252;28;19977;-45
2022/10/15 13:20:16;;;;;;;;;;;20.30;92.10;;;;;;5115479;28;19908;-43
2022/10/15 13:22:42;;;;;;;;;;;20.20;92.10;;;;;;5097647;28;19904;-47
2022/10/15 13:25:17;;;;;;;;;;;20.30;92.10;;;;;;5115694;28;20441;-50
2022/10/15 13:27:42;;;;;;;;;;;20.30;92.10;;;;;;5115193;28;19994;-49
2022/10/15 13:30:08;;;;;;;;;;;20.30;92.10;;;;;;5112933;28;19954;-49
2022/10/15 13:32:44;;;;;;;;;;;20.30;92.10;;;;;;5113153;28;19908;-43
2022/10/15 13:35:11;;;;;;;;;;;20.30;92.10;;;;;;5114162;28;19916;-45
2022/10/15 13:37:39;;;;;;;;;;;20.30;92.20;;;;;;5115387;28;19998;-44
2022/10/15 13:40:05;;;;;;;;;;;20.30;92.20;;;;;;5114199;28;19993;-44
2022/10/15 13:42:30;;;;;;;;;;;20.30;92.30;;;;;;5116746;28;19911;-43
2022/10/15 13:44:59;;;;;;;;;;;20.20;92.50;;;;;;5114361;28;19908;-46
2022/10/15 13:47:31;;;;;;;;;;;20.20;92.30;;;;;;5135043;27;19907;-48
2022/10/15 13:50:15;;;;;;;;;;;20.20;92.30;;;;;;5119044;27;19908;-47
2022/10/15 13:52:42;;;;;;;;;;;20.20;92.40;;;;;;5116277;28;19935;-45
2022/10/15 13:55:16;;;;;;;;;;;20.20;92.30;;;;;;5115045;28;19916;-44
2022/10/15 13:57:45;;;;;;;;;;;20.30;92.40;;;;;;5115866;28;19904;-45
2022/10/15 14:00:30;;;;;;;;;;;20.20;92.40;;;;;;5113978;28;20414;-43
2022/10/15 14:03:14;;;;;;;;;;;20.20;92.40;;;;;;5112011;28;19955;-44
2022/10/15 14:05:44;;;;;;;;;;;20.20;92.40;;;;;;5114808;28;19908;-51
2022/10/15 14:08:15;;;;;;;;;;;20.20;92.40;;;;;;5115309;28;19926;-43
2022/10/15 14:10:41;;;;;;;;;;;20.30;92.40;;;;;;5114315;28;20022;-45
2022/10/15 14:13:07;;;;;;;;;;;20.30;92.40;;;;;;5115279;28;20409;-45
2022/10/15 14:15:59;;;;;;;;;;;20.30;92.40;;;;;;5115551;28;19910;-44
2022/10/15 14:18:27;;;;;;;;;;;20.30;92.40;;;;;;5110194;28;19912;-43
2022/10/15 14:20:53;;;;;;;;;;;20.30;92.30;;;;;;5113843;28;19907;-45
2022/10/15 14:23:22;;;;;;;;;;;20.30;92.20;;;;;;5112306;28;19914;-44